Time;durP1;ratioP1;P1;durP2;ratioP2;P2;SDS_P1;SDS_P2;PMS_P1;PMS_P2;Temp;Humidity;BMP_temperature;BMP_pressure;BME280_temperature;BME280_humidity;BME280_pressure;Samples;Min_cycle;Max_cycle;Signal;HPM_P1;HPM_P2
2022/12/08 00:02:07;;;;;;;15.87;8.23;;;;;;;2.81;88.10;100089.59;4970589;28;20193;-64
2022/12/08 00:09:20;;;;;;;13.67;7.93;;;;;;;2.86;88.22;100086.25;4970815;28;20301;-63
2022/12/08 00:10:06;;;;;;;13.57;7.57;;;;;;;2.95;88.75;100081.38;4970098;28;20690;-64
2022/12/08 00:12:52;;;;;;;15.33;8.57;;;;;;;2.98;88.58;100074.53;4970493;28;20213;-64
2022/12/08 00:15:18;;;;;;;15.17;7.97;;;;;;;3.07;88.57;100074.00;4968258;28;20243;-64
2022/12/08 00:17:44;;;;;;;15.60;8.07;;;;;;;3.09;88.35;100077.56;4969473;28;20719;-64
2022/12/08 00:20:11;;;;;;;15.37;8.67;;;;;;;3.26;88.00;100073.88;4970685;28;20296;-64
2022/12/08 00:22:37;;;;;;;14.97;8.17;;;;;;;3.29;87.33;100067.88;4970067;28;20239;-64
2022/12/08 00:25:04;;;;;;;15.67;8.23;;;;;;;3.32;87.35;100066.25;4965822;28;20433;-64
2022/12/08 00:27:31;;;;;;;14.80;8.50;;;;;;;3.35;86.91;100068.09;4969865;28;20227;-63
2022/12/08 00:29:57;;;;;;;15.87;8.10;;;;;;;3.46;86.41;100070.25;4969614;28;20236;-64
2022/12/08 00:32:23;;;;;;;18.07;8.47;;;;;;;3.41;86.57;100063.97;4970317;28;20229;-64
2022/12/08 00:34:50;;;;;;;14.10;8.27;;;;;;;3.41;86.46;100058.72;4968818;28;20197;-64
2022/12/08 00:37:16;;;;;;;17.03;8.70;;;;;;;3.42;86.40;100059.63;4969707;28;20691;-64
2022/12/08 00:39:42;;;;;;;15.60;7.87;;;;;;;3.42;86.54;100054.38;4970176;28;20197;-64
2022/12/08 00:42:12;;;;;;;15.60;8.47;;;;;;;3.41;86.04;100049.97;4951792;28;20304;-64
2022/12/08 00:44:43;;;;;;;16.07;8.27;;;;;;;3.51;86.11;100053.81;4969874;28;20228;-64
2022/12/08 00:47:11;;;;;;;15.80;8.37;;;;;;;3.50;86.23;100059.88;4967685;28;20755;-63
2022/12/08 00:49:37;;;;;;;14.37;8.60;;;;;;;3.47;86.39;100056.31;4970168;28;20232;-64
2022/12/08 00:52:04;;;;;;;14.67;8.40;;;;;;;3.46;86.60;100045.78;4968461;28;20276;-64
2022/12/08 00:54:31;;;;;;;16.60;8.73;;;;;;;3.50;86.48;100041.56;4966075;28;20194;-65
2022/12/08 00:56:57;;;;;;;16.07;8.87;;;;;;;3.53;86.25;100044.28;4969599;28;20683;-64
2022/12/08 00:59:23;;;;;;;13.23;8.03;;;;;;;3.57;85.46;100040.94;4963269;28;20609;-64
2022/12/08 01:01:50;;;;;;;13.90;8.23;;;;;;;3.56;85.56;100036.53;4969448;28;20198;-64
2022/12/08 01:04:18;;;;;;;15.90;8.50;;;;;;;3.51;85.55;100036.38;4969760;28;20231;-64
2022/12/08 01:06:45;;;;;;;15.00;8.27;;;;;;;3.53;85.58;100047.78;4969530;28;20225;-64
2022/12/08 01:09:13;;;;;;;15.10;8.30;;;;;;;3.55;85.76;100045.22;4969463;28;20197;-64
2022/12/08 01:11:40;;;;;;;13.43;7.53;;;;;;;3.50;85.84;100047.69;4974070;28;20284;-64
2022/12/08 01:14:06;;;;;;;14.53;7.83;;;;;;;3.50;85.96;100038.94;4973520;28;20280;-64
2022/12/08 01:16:34;;;;;;;14.00;8.07;;;;;;;3.54;85.73;100041.72;4971239;28;20776;-64
2022/12/08 01:19:01;;;;;;;14.63;8.40;;;;;;;3.66;85.44;100050.03;4970130;28;20545;-64
2022/12/08 01:21:28;;;;;;;15.10;8.80;;;;;;;3.60;85.34;100044.59;4972486;28;20209;-64
2022/12/08 01:23:56;;;;;;;15.03;8.30;;;;;;;3.56;85.67;100041.78;4972572;28;20597;-63
2022/12/08 01:26:23;;;;;;;14.80;8.40;;;;;;;3.53;85.95;100037.31;4972373;28;20233;-64
2022/12/08 01:28:49;;;;;;;15.10;8.27;;;;;;;3.55;85.80;100037.38;4972690;28;20265;-63
2022/12/08 01:31:18;;;;;;;19.23;8.53;;;;;;;3.53;86.00;100034.72;4973760;28;20197;-64
2022/12/08 01:33:45;;;;;;;14.20;8.10;;;;;;;3.52;85.79;100030.31;4973082;28;20213;-65
2022/12/08 01:36:18;;;;;;;15.10;8.80;;;;;;;3.50;86.24;100031.97;4971398;28;20245;-65
2022/12/08 01:38:44;;;;;;;17.63;8.20;;;;;;;3.51;86.39;100030.25;4972823;28;20204;-63
2022/12/08 01:41:20;;;;;;;14.10;8.07;;;;;;;3.50;86.34;100031.97;4973425;28;20201;-64
2022/12/08 01:44:07;;;;;;;15.47;8.27;;;;;;;3.51;86.71;100025.91;4971316;28;20201;-64
2022/12/08 01:46:36;;;;;;;18.10;8.93;;;;;;;3.54;86.45;100022.50;4973248;28;20232;-64
2022/12/08 01:49:09;;;;;;;18.77;8.97;;;;;;;3.51;86.04;100020.66;4971542;28;20308;-64
2022/12/08 01:51:43;;;;;;;17.40;8.73;;;;;;;3.46;86.41;100011.78;4972050;28;20288;-64
2022/12/08 01:54:11;;;;;;;17.37;8.70;;;;;;;3.41;86.24;100014.22;4971705;28;20194;-64
2022/12/08 01:57:03;;;;;;;14.67;8.60;;;;;;;3.58;85.49;100024.41;4972433;28;20225;-63
2022/12/08 01:59:35;;;;;;;18.23;9.20;;;;;;;3.37;85.67;100021.91;4951483;28;20672;-65
2022/12/08 02:02:01;;;;;;;15.60;8.77;;;;;;;3.15;85.95;100015.88;4971229;28;20205;-64
2022/12/08 02:04:27;;;;;;;21.47;9.57;;;;;;;2.87;86.34;100014.81;4972863;28;20252;-63
2022/12/08 02:06:54;;;;;;;19.53;9.53;;;;;;;2.59;86.88;100010.25;4971814;28;20227;-64
2022/12/08 02:09:21;;;;;;;18.50;9.20;;;;;;;2.36;87.73;100007.63;4955770;28;20227;-64
2022/12/08 02:11:49;;;;;;;16.50;9.90;;;;;;;2.15;88.48;99993.72;4970055;28;20200;-65
2022/12/08 02:14:15;;;;;;;18.20;10.00;;;;;;;1.98;89.06;99993.00;4972908;28;20199;-64
2022/12/08 02:16:55;;;;;;;21.90;10.00;;;;;;;1.78;89.58;99994.81;4972401;28;20225;-64
2022/12/08 02:19:39;;;;;;;20.50;9.47;;;;;;;1.63;89.88;99996.78;4967406;28;20234;-64
2022/12/08 02:22:11;;;;;;;17.00;9.50;;;;;;;1.51;90.49;99993.63;4969685;28;20291;-64
2022/12/08 02:24:45;;;;;;;18.93;9.43;;;;;;;1.40;90.66;99995.78;4972716;28;20270;-64
2022/12/08 02:27:39;;;;;;;20.00;9.60;;;;;;;1.52;91.77;100003.25;4971037;28;20210;-64
2022/12/08 02:30:17;;;;;;;19.17;9.07;;;;;;;1.46;92.08;100001.28;4969108;28;20200;-65
2022/12/08 02:33:05;;;;;;;19.37;9.63;;;;;;;1.39;92.02;100001.84;4972632;28;20207;-64
2022/12/08 02:35:42;;;;;;;20.83;10.00;;;;;;;1.38;92.31;99987.00;4968424;28;20642;-65
2022/12/08 02:38:36;;;;;;;21.33;9.40;;;;;;;1.35;93.11;99986.88;4970283;28;20694;-64
2022/12/08 02:41:22;;;;;;;19.23;9.70;;;;;;;1.36;93.30;99986.06;4972080;28;20284;-64
2022/12/08 02:44:17;;;;;;;21.60;10.03;;;;;;;1.41;93.77;99981.91;4972300;28;20198;-64
2022/12/08 02:46:51;;;;;;;20.53;9.77;;;;;;;1.47;94.08;99981.28;4970055;28;20618;-64
2022/12/08 02:49:17;;;;;;;21.37;10.13;;;;;;;1.56;94.29;99979.94;4967974;28;20275;-64
2022/12/08 02:51:44;;;;;;;23.80;10.27;;;;;;;1.60;94.03;99986.19;4972079;28;20334;-64
2022/12/08 02:54:11;;;;;;;22.20;10.23;;;;;;;1.63;94.29;99980.25;4971842;28;20246;-64
2022/12/08 02:57:10;;;;;;;21.73;10.87;;;;;;;1.64;94.39;99962.03;4971721;28;20272;-64
2022/12/08 03:00:18;;;;;;;20.27;10.37;;;;;;;1.66;94.16;99970.81;4955096;28;20262;-64
2022/12/08 03:02:59;;;;;;;23.43;11.47;;;;;;;1.67;94.08;99975.22;4910095;29;20200;-64
2022/12/08 03:05:31;;;;;;;20.23;10.30;;;;;;;1.69;94.03;99972.66;4911517;29;20232;-63
2022/12/08 03:08:18;;;;;;;18.93;9.97;;;;;;;1.68;94.13;99958.72;4946592;28;20221;-64
2022/12/08 03:10:45;;;;;;;23.03;10.40;;;;;;;1.73;94.43;99956.28;4969521;28;20200;-64
2022/12/08 03:13:31;;;;;;;22.13;10.77;;;;;;;1.73;94.20;99951.97;4971334;28;20685;-63
2022/12/08 03:15:59;;;;;;;23.60;11.20;;;;;;;1.81;94.05;99960.09;4971199;28;20236;-64
2022/12/08 03:18:30;;;;;;;19.97;10.43;;;;;;;1.78;93.91;99949.53;4969786;28;20669;-64
2022/12/08 03:20:58;;;;;;;21.87;10.53;;;;;;;1.79;93.99;99951.31;4971153;28;20661;-64
2022/12/08 03:23:25;;;;;;;22.47;11.03;;;;;;;1.80;93.79;99950.50;4971295;28;20709;-64
2022/12/08 03:26:07;;;;;;;23.33;11.47;;;;;;;1.77;93.92;99948.66;4953445;28;20218;-64
2022/12/08 03:28:33;;;;;;;18.70;10.43;;;;;;;1.73;93.93;99954.56;4970790;28;20238;-64
2022/12/08 03:31:04;;;;;;;24.30;10.47;;;;;;;1.68;93.64;99943.06;4968977;28;20629;-64
2022/12/08 03:33:36;;;;;;;20.00;10.67;;;;;;;1.74;94.10;99948.53;4970230;28;20300;-64
2022/12/08 03:36:05;;;;;;;20.63;11.00;;;;;;;1.73;94.26;99938.03;4971442;28;20263;-64
2022/12/08 03:38:44;;;;;;;24.20;10.07;;;;;;;1.73;94.00;99938.03;4969849;28;20623;-67
2022/12/08 03:41:17;;;;;;;23.77;10.80;;;;;;;1.69;94.16;99936.13;4970167;28;20290;-64
2022/12/08 03:44:03;;;;;;;18.10;9.23;;;;;;;1.66;93.92;99930.78;4970254;28;20226;-64
2022/12/08 03:46:30;;;;;;;20.70;10.30;;;;;;;1.61;93.77;99927.09;4968339;28;20224;-65
2022/12/08 03:48:56;;;;;;;19.67;10.70;;;;;;;1.55;94.03;99923.38;4968926;28;20249;-65
2022/12/08 03:51:23;;;;;;;19.17;10.37;;;;;;;1.50;94.07;99916.19;4970802;28;20643;-64
2022/12/08 03:53:49;;;;;;;20.17;9.50;;;;;;;1.51;93.95;99918.84;4953758;28;20202;-64
2022/12/08 03:56:25;;;;;;;18.70;10.23;;;;;;;1.48;94.80;99916.13;4970595;28;20257;-64
2022/12/08 03:58:52;;;;;;;21.20;9.40;;;;;;;1.50;94.53;99903.13;4966901;28;20282;-64
2022/12/08 04:01:19;;;;;;;24.00;10.10;;;;;;;1.63;94.76;99921.09;4966772;28;20763;-64
2022/12/08 04:03:45;;;;;;;19.53;10.57;;;;;;;1.71;94.97;99916.19;4970753;28;20211;-64
2022/12/08 04:06:12;;;;;;;19.93;10.07;;;;;;;1.78;95.25;99913.00;4967677;28;20704;-64
2022/12/08 04:08:38;;;;;;;22.37;10.37;;;;;;;1.89;95.12;99912.59;4970657;28;20218;-64
2022/12/08 04:11:05;;;;;;;21.47;10.43;;;;;;;1.95;95.00;99905.81;4970218;28;20625;-66
2022/12/08 04:13:33;;;;;;;21.03;10.00;;;;;;;2.04;94.82;99907.09;4969487;28;20297;-67
2022/12/08 04:16:00;;;;;;;19.93;9.97;;;;;;;2.10;94.79;99909.06;4969998;28;20662;-64
2022/12/08 04:18:26;;;;;;;19.57;10.30;;;;;;;2.13;94.61;99902.22;4970801;28;20210;-64
2022/12/08 04:20:55;;;;;;;17.60;9.53;;;;;;;2.15;94.56;99900.56;4970734;28;20209;-64
2022/12/08 04:23:21;;;;;;;20.27;10.63;;;;;;;2.23;94.58;99907.81;4966969;28;20287;-64
2022/12/08 04:25:49;;;;;;;18.10;9.87;;;;;;;2.23;94.44;99900.84;4970089;28;20312;-64
2022/12/08 04:28:16;;;;;;;21.83;10.37;;;;;;;2.26;94.11;99900.09;4969936;28;20305;-64
2022/12/08 04:30:42;;;;;;;18.00;9.67;;;;;;;2.32;93.52;99906.44;4969691;28;20201;-66
2022/12/08 04:33:09;;;;;;;19.90;10.30;;;;;;;2.30;93.46;99897.66;4970791;28;20232;-66
2022/12/08 04:35:35;;;;;;;23.00;10.77;;;;;;;2.31;93.31;99898.53;4970547;28;20227;-67
2022/12/08 04:38:02;;;;;;;22.20;10.53;;;;;;;2.30;92.68;99897.66;4969202;28;20256;-66
2022/12/08 04:40:28;;;;;;;21.67;10.70;;;;;;;2.26;92.63;99889.63;4970993;28;20226;-67
2022/12/08 04:42:54;;;;;;;19.13;9.30;;;;;;;2.16;92.37;99868.41;4970182;28;20235;-65
2022/12/08 04:45:21;;;;;;;19.90;9.73;;;;;;;2.18;92.48;99871.94;4951739;28;20277;-64
2022/12/08 04:47:47;;;;;;;21.63;9.77;;;;;;;2.33;92.03;99883.81;4968532;28;20732;-64
2022/12/08 04:50:13;;;;;;;18.93;10.00;;;;;;;2.30;92.06;99891.53;4969984;28;20208;-63
2022/12/08 04:52:40;;;;;;;17.13;9.43;;;;;;;2.28;92.14;99887.97;4969806;28;20227;-64
2022/12/08 04:55:06;;;;;;;22.37;10.37;;;;;;;2.26;92.18;99895.75;4968324;28;20217;-64
2022/12/08 04:57:33;;;;;;;19.60;9.90;;;;;;;2.29;92.53;99892.38;4969756;28;20258;-64
2022/12/08 04:59:59;;;;;;;20.53;9.93;;;;;;;2.31;92.30;99882.84;4969152;28;20204;-66
2022/12/08 05:02:26;;;;;;;17.23;9.77;;;;;;;2.37;92.52;99893.53;4969782;28;20235;-64
2022/12/08 05:04:52;;;;;;;18.73;9.80;;;;;;;2.40;92.37;99886.75;4968918;28;20199;-64
2022/12/08 05:07:18;;;;;;;20.67;10.10;;;;;;;2.41;92.47;99882.41;4969173;28;20302;-64
2022/12/08 05:09:45;;;;;;;20.50;9.77;;;;;;;2.49;92.23;99881.84;4969694;28;20272;-64
2022/12/08 05:12:11;;;;;;;16.17;9.07;;;;;;;2.50;92.60;99880.13;4967032;28;20294;-64
2022/12/08 05:14:37;;;;;;;20.40;9.43;;;;;;;2.58;92.23;99876.06;4951363;28;20209;-65
2022/12/08 05:17:04;;;;;;;20.33;10.00;;;;;;;2.58;92.05;99880.41;4963267;23;20295;-66
2022/12/08 05:19:35;;;;;;;19.10;9.37;;;;;;;2.57;91.90;99871.66;4931116;29;20266;-66
2022/12/08 05:22:01;;;;;;;17.93;9.47;;;;;;;2.57;91.89;99873.38;4930664;29;20206;-66
2022/12/08 05:24:27;;;;;;;18.27;9.57;;;;;;;2.57;92.01;99865.56;4930239;29;20204;-65
2022/12/08 05:26:54;;;;;;;18.33;9.33;;;;;;;2.56;91.81;99869.88;4929984;29;20664;-63
2022/12/08 05:29:20;;;;;;;18.17;9.03;;;;;;;2.60;91.32;99877.00;4929138;29;20326;-65
2022/12/08 05:31:46;;;;;;;19.43;8.13;;;;;;;2.60;91.27;99869.16;4931662;29;20284;-65
2022/12/08 05:34:13;;;;;;;17.07;8.93;;;;;;;2.57;91.16;99865.56;4931118;29;20302;-65
2022/12/08 05:36:39;;;;;;;16.73;7.83;;;;;;;2.56;91.25;99861.16;4930146;29;20313;-66
2022/12/08 05:39:05;;;;;;;17.03;8.37;;;;;;;2.61;91.11;99864.81;4930983;29;20257;-65
2022/12/08 05:41:32;;;;;;;13.63;7.87;;;;;;;2.58;91.17;99873.44;4931584;29;20291;-66
2022/12/08 05:43:58;;;;;;;15.33;7.90;;;;;;;2.57;91.17;99869.06;4930836;29;20311;-65
2022/12/08 05:46:27;;;;;;;14.93;7.60;;;;;;;2.58;91.15;99867.31;4931406;29;20323;-65
2022/12/08 05:48:53;;;;;;;16.37;7.63;;;;;;;2.58;91.21;99864.72;4930019;29;20278;-66
2022/12/08 05:51:22;;;;;;;13.80;7.40;;;;;;;2.56;91.25;99863.78;4928687;29;20199;-65
2022/12/08 05:53:50;;;;;;;15.47;7.40;;;;;;;2.56;91.45;99863.78;4930366;29;20212;-66
2022/12/08 05:56:18;;;;;;;14.23;7.30;;;;;;;2.59;90.94;99862.16;4933120;29;20308;-66
2022/12/08 05:58:44;;;;;;;12.00;6.93;;;;;;;2.66;90.64;99847.56;4933996;29;20202;-65
2022/12/08 06:01:38;;;;;;;14.23;7.23;;;;;;;2.69;90.29;99856.41;4934476;29;20469;-65
2022/12/08 06:04:04;;;;;;;12.83;7.00;;;;;;;2.72;90.15;99858.25;4932523;29;20278;-65
2022/12/08 06:06:33;;;;;;;13.53;7.10;;;;;;;2.64;90.29;99847.53;4934956;29;20224;-66
2022/12/08 06:09:01;;;;;;;15.47;7.23;;;;;;;2.70;90.18;99857.31;4932111;29;20272;-65
2022/12/08 06:11:29;;;;;;;15.47;7.10;;;;;;;2.67;90.09;99858.09;4930674;29;20240;-65
2022/12/08 06:13:56;;;;;;;13.33;6.60;;;;;;;2.66;90.32;99858.03;4934937;29;20237;-66
2022/12/08 06:16:25;;;;;;;12.77;6.80;;;;;;;2.66;90.35;99858.03;4932088;29;20311;-65
2022/12/08 06:18:52;;;;;;;12.80;6.93;;;;;;;2.68;90.05;99861.59;4925843;29;20202;-65
2022/12/08 06:21:18;;;;;;;12.93;6.83;;;;;;;2.68;90.06;99856.38;4921368;29;20294;-67
2022/12/08 06:23:52;;;;;;;13.63;6.37;;;;;;;2.67;90.01;99857.19;4926775;29;20235;-66
2022/12/08 06:26:19;;;;;;;12.83;6.60;;;;;;;2.66;89.90;99858.94;4921472;29;20317;-66
2022/12/08 06:28:46;;;;;;;12.83;6.97;;;;;;;2.63;89.85;99858.81;4922839;29;20308;-66
2022/12/08 06:31:16;;;;;;;12.53;6.50;;;;;;;2.62;89.88;99862.25;4922499;29;20221;-66
2022/12/08 06:33:42;;;;;;;12.57;6.67;;;;;;;2.68;89.45;99867.72;4926575;29;20589;-66
2022/12/08 06:36:12;;;;;;;12.37;6.97;;;;;;;2.66;89.86;99863.25;4919854;29;20269;-66
2022/12/08 06:38:39;;;;;;;13.07;6.90;;;;;;;2.63;89.83;99857.94;4922701;29;20276;-66
2022/12/08 06:41:10;;;;;;;14.33;6.70;;;;;;;2.65;89.85;99862.38;4925258;29;20212;-65
2022/12/08 06:43:36;;;;;;;12.60;7.07;;;;;;;2.69;89.56;99869.50;4924273;29;20234;-65
2022/12/08 06:46:06;;;;;;;16.70;7.57;;;;;;;2.70;89.69;99857.31;4923899;29;20229;-66
2022/12/08 06:48:32;;;;;;;14.67;7.60;;;;;;;2.81;88.88;99863.84;4921208;29;20195;-65
2022/12/08 06:51:06;;;;;;;11.73;6.67;;;;;;;2.79;89.16;99868.09;4923891;29;20739;-66
2022/12/08 06:53:33;;;;;;;15.10;7.40;;;;;;;2.86;88.72;99862.28;4920853;29;20462;-66
2022/12/08 06:55:59;;;;;;;14.13;6.90;;;;;;;2.86;88.71;99867.50;4921612;29;20302;-66
2022/12/08 06:58:25;;;;;;;12.53;7.13;;;;;;;2.98;88.29;99870.53;4922884;29;20256;-65
2022/12/08 07:00:52;;;;;;;12.73;6.83;;;;;;;2.95;88.58;99865.19;4915618;29;20254;-66
2022/12/08 07:03:19;;;;;;;12.37;6.53;;;;;;;2.92;88.56;99867.72;4914199;29;20661;-66
2022/12/08 07:05:45;;;;;;;12.90;6.50;;;;;;;2.93;88.20;99864.25;4916408;29;20224;-65
2022/12/08 07:08:12;;;;;;;10.47;6.40;;;;;;;2.92;88.40;99867.72;4914456;29;20282;-65
2022/12/08 07:10:40;;;;;;;12.40;6.53;;;;;;;2.90;88.82;99865.88;4916814;29;20645;-66
2022/12/08 07:13:07;;;;;;;13.40;6.77;;;;;;;2.87;88.58;99853.59;4915268;29;20239;-67
2022/12/08 07:15:33;;;;;;;11.83;6.23;;;;;;;2.96;88.10;99861.75;4919213;29;20225;-66
2022/12/08 07:17:59;;;;;;;10.73;6.80;;;;;;;2.91;88.55;99857.19;4933817;29;20205;-66
2022/12/08 07:20:26;;;;;;;12.90;6.63;;;;;;;2.90;88.50;99856.31;4933025;29;20555;-66
2022/12/08 07:22:53;;;;;;;10.63;6.27;;;;;;;2.88;88.61;99852.75;4934234;29;20746;-65
2022/12/08 07:25:19;;;;;;;11.87;6.63;;;;;;;2.92;88.56;99853.75;4935640;29;20210;-65
2022/12/08 07:27:46;;;;;;;12.90;7.00;;;;;;;3.00;88.30;99841.81;4935128;29;20227;-66
2022/12/08 07:30:13;;;;;;;15.20;7.00;;;;;;;3.02;87.85;99855.84;4934242;29;20255;-65
2022/12/08 07:32:40;;;;;;;11.40;6.57;;;;;;;2.99;88.19;99846.16;4932633;29;20390;-66
2022/12/08 07:35:07;;;;;;;15.27;6.87;;;;;;;3.03;88.16;99850.66;4933003;29;20239;-66
2022/12/08 07:37:34;;;;;;;13.23;6.97;;;;;;;3.04;88.22;99848.94;4932744;29;20260;-65
2022/12/08 07:40:01;;;;;;;11.77;6.73;;;;;;;3.05;88.40;99850.72;4932405;29;20250;-67
2022/12/08 07:42:28;;;;;;;12.13;6.47;;;;;;;3.12;88.34;99850.06;4933022;29;20207;-65
2022/12/08 07:44:54;;;;;;;11.53;6.83;;;;;;;3.20;87.82;99852.94;4930974;29;20240;-65
2022/12/08 07:47:20;;;;;;;11.10;6.43;;;;;;;3.30;87.47;99858.56;4925490;29;20314;-67
2022/12/08 07:49:47;;;;;;;13.13;6.20;;;;;;;3.30;87.17;99850.72;4933403;29;21483;-67
2022/12/08 07:52:13;;;;;;;10.40;6.30;;;;;;;3.42;86.37;99853.72;4932479;29;20235;-68
2022/12/08 07:54:39;;;;;;;12.37;6.97;;;;;;;3.41;86.53;99853.69;4934129;29;20717;-68
2022/12/08 07:57:07;;;;;;;11.73;6.57;;;;;;;3.43;86.70;99854.63;4928064;29;20243;-68
2022/12/08 07:59:34;;;;;;;12.40;6.77;;;;;;;3.47;86.91;99853.88;4933282;29;20287;-69
2022/12/08 08:02:00;;;;;;;12.13;6.13;;;;;;;3.50;87.11;99846.13;4927208;29;20640;-68
2022/12/08 08:04:50;;;;;;;11.50;6.27;;;;;;;3.54;86.21;99855.84;4929587;29;20206;-69
2022/12/08 08:07:16;;;;;;;11.83;6.40;;;;;;;3.63;85.87;99853.56;4932043;29;20219;-68
2022/12/08 08:09:44;;;;;;;9.70;5.63;;;;;;;3.61;86.08;99842.16;4931672;29;20250;-68
2022/12/08 08:12:10;;;;;;;13.40;6.60;;;;;;;3.73;85.60;99852.13;4932627;29;20249;-68
2022/12/08 08:14:57;;;;;;;12.67;6.53;;;;;;;3.77;85.48;99844.41;4925916;29;20293;-69
2022/12/08 08:17:23;;;;;;;11.50;5.67;;;;;;;3.87;84.65;99860.41;4936004;28;20317;-68
2022/12/08 08:19:51;;;;;;;13.23;6.23;;;;;;;3.95;84.40;99856.28;4931512;29;20195;-69
2022/12/08 08:22:17;;;;;;;11.27;6.20;;;;;;;3.99;84.07;99858.16;4931532;29;20206;-69
2022/12/08 08:24:44;;;;;;;10.63;6.03;;;;;;;4.08;84.11;99859.34;4932439;29;20647;-69
2022/12/08 08:27:11;;;;;;;11.07;6.50;;;;;;;4.17;82.37;99861.34;4933727;29;20219;-69
2022/12/08 08:29:37;;;;;;;8.47;5.37;;;;;;;4.19;82.20;99853.53;4932688;29;20307;-69
2022/12/08 08:32:04;;;;;;;11.30;5.73;;;;;;;4.30;81.33;99857.34;4930711;29;20359;-69
2022/12/08 08:34:30;;;;;;;12.03;5.83;;;;;;;4.36;80.53;99849.66;4932417;29;20278;-70
2022/12/08 08:36:57;;;;;;;10.80;5.53;;;;;;;4.32;81.06;99855.66;4931980;29;20302;-70
2022/12/08 08:39:23;;;;;;;11.70;6.07;;;;;;;4.29;81.43;99843.38;4931428;29;20199;-69
2022/12/08 08:41:50;;;;;;;11.00;5.93;;;;;;;4.40;82.12;99851.53;4932055;29;20211;-69
2022/12/08 08:44:16;;;;;;;11.20;6.13;;;;;;;4.53;81.41;99865.91;4932313;29;20203;-70
2022/12/08 08:46:43;;;;;;;9.27;5.40;;;;;;;4.61;81.19;99860.03;4932030;29;20265;-69
2022/12/08 08:49:09;;;;;;;11.73;5.63;;;;;;;4.70;81.58;99862.91;4930569;29;20227;-69
2022/12/08 08:51:36;;;;;;;9.10;5.57;;;;;;;4.81;80.62;99862.34;4932316;29;20261;-69
2022/12/08 08:54:02;;;;;;;9.60;5.77;;;;;;;4.84;80.71;99859.81;4931925;29;20235;-69
2022/12/08 08:56:29;;;;;;;8.63;5.43;;;;;;;4.91;80.40;99854.75;4931104;29;20250;-69
2022/12/08 08:58:55;;;;;;;9.33;5.50;;;;;;;4.90;80.50;99852.97;4931958;29;20238;-69
2022/12/08 09:01:26;;;;;;;9.20;5.17;;;;;;;4.95;80.29;99853.09;4931864;29;20248;-69
2022/12/08 09:03:53;;;;;;;10.17;4.93;;;;;;;4.94;79.91;99852.22;4932335;29;20214;-69
2022/12/08 09:06:20;;;;;;;10.67;5.60;;;;;;;4.98;80.06;99853.19;4914605;29;20230;-69
2022/12/08 09:08:47;;;;;;;8.23;5.20;;;;;;;4.98;79.75;99848.81;4930425;29;20195;-69
2022/12/08 09:11:13;;;;;;;7.03;4.60;;;;;;;4.93;79.75;99842.56;4931944;29;20250;-69
2022/12/08 09:13:40;;;;;;;6.87;4.40;;;;;;;5.00;79.35;99852.38;4932190;29;20235;-69
2022/12/08 09:16:07;;;;;;;8.40;4.63;;;;;;;5.01;79.37;99851.53;4932019;29;20232;-69
2022/12/08 09:18:34;;;;;;;7.47;4.27;;;;;;;5.10;78.15;99850.00;4930486;29;20278;-69
2022/12/08 09:21:13;;;;;;;7.67;4.50;;;;;;;5.02;78.55;99847.16;4931771;29;20204;-69
2022/12/08 09:23:42;;;;;;;7.00;4.60;;;;;;;5.05;79.14;99849.88;4932327;29;20299;-70
2022/12/08 09:26:08;;;;;;;8.10;4.63;;;;;;;5.18;78.15;99844.09;4931349;29;20222;-69
2022/12/08 09:28:35;;;;;;;8.10;4.60;;;;;;;5.26;78.13;99849.56;4933655;29;20633;-69
2022/12/08 09:31:01;;;;;;;8.60;4.83;;;;;;;5.34;78.21;99846.28;4933799;29;20255;-70
2022/12/08 09:33:28;;;;;;;10.07;5.10;;;;;;;5.44;77.57;99844.75;4934280;29;20583;-68
2022/12/08 09:35:55;;;;;;;8.27;5.10;;;;;;;5.44;77.25;99849.13;4935388;29;20306;-69
2022/12/08 09:38:21;;;;;;;8.37;4.10;;;;;;;5.53;76.99;99838.84;4935127;29;20691;-68
2022/12/08 09:40:50;;;;;;;7.27;4.53;;;;;;;5.65;76.26;99832.16;4934321;29;20669;-69
2022/12/08 09:43:26;;;;;;;6.93;4.10;;;;;;;5.64;75.31;99850.53;4935547;29;20225;-69
2022/12/08 09:45:54;;;;;;;6.73;3.73;;;;;;;5.63;76.09;99843.50;4934934;29;20720;-69
2022/12/08 09:48:31;;;;;;;8.07;4.50;;;;;;;5.65;75.48;99837.44;4934534;29;20642;-70
2022/12/08 09:50:58;;;;;;;6.27;4.33;;;;;;;5.68;75.45;99841.88;4933724;29;20571;-68
2022/12/08 09:53:49;;;;;;;8.47;5.00;;;;;;;5.86;75.97;99828.25;4935245;29;20594;-69
2022/12/08 09:56:21;;;;;;;7.03;4.00;;;;;;;5.95;74.17;99836.38;4934897;29;20216;-67
2022/12/08 09:58:59;;;;;;;6.43;3.83;;;;;;;5.90;74.40;99835.38;4933580;29;20291;-69
2022/12/08 10:01:28;;;;;;;6.83;4.00;;;;;;;5.88;73.53;99826.56;4922259;29;20201;-69
2022/12/08 10:03:55;;;;;;;6.53;3.83;;;;;;;5.87;74.24;99819.53;4934363;29;20263;-69
2022/12/08 10:06:46;;;;;;;5.60;3.17;;;;;;;5.95;72.88;99825.88;4934893;29;20231;-69
2022/12/08 10:09:40;;;;;;;8.17;3.77;;;;;;;6.17;71.69;99816.72;4916782;29;20268;-69
2022/12/08 10:12:09;;;;;;;6.57;3.27;;;;;;;6.25;71.39;99820.41;4934801;29;20636;-66
2022/12/08 10:14:46;;;;;;;6.10;3.20;;;;;;;6.28;69.99;99813.47;4934669;29;20231;-70
2022/12/08 10:17:16;;;;;;;4.27;3.10;;;;;;;6.44;68.53;99809.44;4930924;29;20727;-69
2022/12/08 10:19:44;;;;;;;4.73;3.40;;;;;;;6.23;68.96;99794.06;4930494;29;20579;-69
2022/12/08 10:22:25;;;;;;;5.53;3.23;;;;;;;6.40;69.24;99807.56;4930920;29;20570;-69
2022/12/08 10:25:14;;;;;;;8.03;4.20;;;;;;;6.39;68.32;99811.06;4933964;29;20291;-69
2022/12/08 10:27:40;;;;;;;6.40;3.53;;;;;;;6.46;68.64;99801.56;4932579;29;20201;-69
2022/12/08 10:30:15;;;;;;;5.60;3.20;;;;;;;6.46;67.18;99791.06;4934185;29;20295;-69
2022/12/08 10:32:46;;;;;;;4.50;3.00;;;;;;;6.25;67.84;99796.75;4932139;29;20245;-69
2022/12/08 10:35:15;;;;;;;4.67;3.10;;;;;;;6.24;67.07;99795.84;4934436;29;20204;-69
2022/12/08 10:37:58;;;;;;;4.60;3.27;;;;;;;6.24;68.11;99794.97;4930609;29;20634;-69
2022/12/08 10:40:34;;;;;;;4.87;3.30;;;;;;;6.25;67.22;99796.75;4932317;29;20227;-69
2022/12/08 10:43:14;;;;;;;4.53;2.90;;;;;;;6.31;67.03;99794.22;4931971;29;20206;-67
2022/12/08 10:45:41;;;;;;;5.60;3.10;;;;;;;6.34;67.25;99796.03;4931250;29;20568;-69
2022/12/08 10:48:10;;;;;;;4.60;3.10;;;;;;;6.38;67.97;99795.25;4933895;29;20210;-70
2022/12/08 10:50:54;;;;;;;6.73;3.17;;;;;;;6.34;67.88;99785.53;4934072;29;20278;-69
2022/12/08 10:53:26;;;;;;;7.83;3.07;;;;;;;6.44;68.49;99779.63;4934914;29;20213;-67
2022/12/08 10:56:06;;;;;;;5.33;3.03;;;;;;;6.45;67.72;99773.50;4933404;29;20221;-68
2022/12/08 10:58:34;;;;;;;4.53;3.03;;;;;;;6.54;66.97;99773.66;4932976;29;20201;-69
2022/12/08 11:01:17;;;;;;;4.13;2.77;;;;;;;6.58;67.51;99775.50;4934599;29;20195;-69
2022/12/08 11:03:43;;;;;;;5.83;3.00;;;;;;;6.48;67.78;99776.19;4931118;29;20233;-67
2022/12/08 11:06:41;;;;;;;5.97;3.40;;;;;;;6.37;67.59;99772.44;4933749;29;20757;-67
2022/12/08 11:09:16;;;;;;;5.17;2.90;;;;;;;6.35;66.98;99763.63;4930342;29;20637;-68
2022/12/08 11:11:50;;;;;;;5.50;3.13;;;;;;;6.37;67.78;99767.16;4930197;29;20308;-70
2022/12/08 11:14:31;;;;;;;7.53;3.10;;;;;;;6.29;67.13;99769.66;4933782;29;20615;-69
2022/12/08 11:17:13;;;;;;;6.53;3.20;;;;;;;6.29;66.42;99761.75;4990931;23;20313;-65
2022/12/08 11:19:43;;;;;;;4.93;2.83;;;;;;;6.38;66.18;99755.78;5005187;28;20718;-65
2022/12/08 11:22:28;;;;;;;7.70;2.90;;;;;;;6.47;66.71;99756.88;5005459;28;20624;-65
2022/12/08 11:25:10;;;;;;;5.70;3.10;;;;;;;6.62;65.78;99753.66;5007164;28;20204;-65
2022/12/08 11:27:57;;;;;;;5.27;3.00;;;;;;;6.60;66.37;99751.00;5003690;28;20704;-65
2022/12/08 11:30:29;;;;;;;4.00;2.93;;;;;;;6.65;66.23;99748.44;4998858;28;20226;-66
2022/12/08 11:33:02;;;;;;;4.77;2.60;;;;;;;6.72;66.23;99745.06;4996921;28;20250;-66
2022/12/08 11:35:34;;;;;;;4.07;2.80;;;;;;;6.74;65.93;99738.09;4991669;28;20235;-66
2022/12/08 11:38:10;;;;;;;4.13;2.90;;;;;;;6.85;65.29;99731.28;4991995;28;20275;-66
2022/12/08 11:40:51;;;;;;;4.40;2.53;;;;;;;6.94;65.39;99741.09;4992990;28;20243;-66
2022/12/08 11:43:29;;;;;;;5.67;2.80;;;;;;;6.89;62.72;99722.59;4993032;28;20197;-66
2022/12/08 11:46:00;;;;;;;7.53;2.80;;;;;;;6.93;63.09;99730.53;4995488;28;20235;-66
2022/12/08 11:48:39;;;;;;;5.50;2.50;;;;;;;6.95;62.78;99737.59;4997148;28;20273;-66
2022/12/08 11:51:14;;;;;;;3.77;2.80;;;;;;;6.96;63.70;99726.19;4992427;28;20303;-66